Mehtap Bayraktar — TCPB — position and weather

sailwx.info

Track history (hours):
 
Tides and Currents Weather Stations Pressure Air Temp Water Temp Dewpoint Dewpoint Depression Visibility Wind Speed Wind Dir Waves Ship Positions

Mehtap Bayraktar

Last reported at 2017-May-24 06:09 UTC. Time now 2017-May-24 19:25 UTC.
Position N 39°47' E 025°47'.

; draft 5.3 m.

Type: Cargo ship. MMSI: 271000578.

Date/timePositionNaut miles runAvg speedWind from/ knotsBaromVisibWave heightAir tempDewpointWater temp
2017-May-24 06:09N 39°47' E 025°47'1 1.0
2017-May-24 04:58N 39°46' E 025°48'1 1.1
2017-May-24 04:21N 39°45' E 025°48'0 1.2
2017-May-24 04:01N 39°45' E 025°48'1 2.9
2017-May-24 03:31N 39°43' E 025°48'  
2017-May-17 22:02N 34°41' E 012°47'011.3
2017-May-17 22:01N 34°41' E 012°47'2811.3
2017-May-17 19:30N 34°47' E 013°21'811.6
2017-May-17 18:47N 34°49' E 013°31'311.5
2017-May-17 18:30N 34°49' E 013°35'711.4
2017-May-17 17:54N 34°50' E 013°43'511.5
2017-May-17 17:30N 34°51' E 013°49'1911.3
2017-May-17 15:48N 34°55' E 014°12'311.4
2017-May-17 15:30N 34°56' E 014°16'611.3
2017-May-17 15:00N 34°57' E 014°23'611.3
2017-May-17 14:28N 34°58' E 014°30'45311.0
2017-May-15 21:07N 36°49' E 023°32'111.3
2017-May-15 21:00N 36°50' E 023°33'611.3
2017-May-15 20:30N 36°54' E 023°36'1111.4
2017-May-15 19:30N 37°04' E 023°44'4711.4
2017-May-15 15:23N 37°43' E 024°16'16311.4
2017-May-15 01:04N 40°01' E 026°07'  
Track history (hours):
 
Tides and Currents Weather Stations Pressure Air Temp Water Temp Dewpoint Dewpoint Depression Visibility Wind Speed Wind Dir Waves Ship Positions

Mehtap Bayraktar

Last reported at 2017-May-24 06:09 UTC. Time now 2017-May-24 19:25 UTC.
Position N 39°47' E 025°47'.

; draft 5.3 m.

Type: Cargo ship. MMSI: 271000578.

Date/timePositionNaut miles runAvg speedWind from/ knotsBaromVisibWave heightAir tempDewpointWater temp
2017-May-24 06:09N 39°47' E 025°47'1 1.0
2017-May-24 04:58N 39°46' E 025°48'1 1.1
2017-May-24 04:21N 39°45' E 025°48'0 1.2
2017-May-24 04:01N 39°45' E 025°48'1 2.9
2017-May-24 03:31N 39°43' E 025°48'  
2017-May-17 22:02N 34°41' E 012°47'011.3
2017-May-17 22:01N 34°41' E 012°47'2811.3
2017-May-17 19:30N 34°47' E 013°21'811.6
2017-May-17 18:47N 34°49' E 013°31'311.5
2017-May-17 18:30N 34°49' E 013°35'711.4
2017-May-17 17:54N 34°50' E 013°43'511.5
2017-May-17 17:30N 34°51' E 013°49'1911.3
2017-May-17 15:48N 34°55' E 014°12'311.4
2017-May-17 15:30N 34°56' E 014°16'611.3
2017-May-17 15:00N 34°57' E 014°23'611.3
2017-May-17 14:28N 34°58' E 014°30'45311.0
2017-May-15 21:07N 36°49' E 023°32'111.3
2017-May-15 21:00N 36°50' E 023°33'611.3
2017-May-15 20:30N 36°54' E 023°36'1111.4
2017-May-15 19:30N 37°04' E 023°44'4711.4
2017-May-15 15:23N 37°43' E 024°16'16311.4
2017-May-15 01:04N 40°01' E 026°07'  

Dump ship's entire track history